createdAt,value
2022-10-21T00:00:54.478Z,8.23
2022-10-21T00:03:22.471Z,8.22
2022-10-21T00:05:49.501Z,8.21
2022-10-21T00:08:17.238Z,8.23
2022-10-21T00:10:43.893Z,8.16
2022-10-21T00:13:11.592Z,8.14
2022-10-21T00:15:38.599Z,8.17
2022-10-21T00:18:05.229Z,8.15
2022-10-21T00:20:33.743Z,8.17
2022-10-21T00:23:02.727Z,8.08
2022-10-21T00:25:29.818Z,8.05
2022-10-21T00:27:56.795Z,8.08
2022-10-21T00:30:23.466Z,8.03
2022-10-21T00:32:50.486Z,8.01
2022-10-21T00:35:17.636Z,7.96
2022-10-21T00:37:44.293Z,7.93
2022-10-21T00:40:11.435Z,7.89
2022-10-21T00:42:43.746Z,7.85
2022-10-21T00:45:20.113Z,7.82
2022-10-21T00:47:55.964Z,7.79
2022-10-21T00:50:38.860Z,7.73
2022-10-21T00:53:15.268Z,7.63
2022-10-21T00:55:49.528Z,7.59
2022-10-21T00:58:18.520Z,7.60
2022-10-21T01:00:56.333Z,7.60
2022-10-21T01:03:25.844Z,7.60
2022-10-21T01:05:56.475Z,7.61
2022-10-21T01:08:24.270Z,7.61
2022-10-21T01:10:51.165Z,7.69
2022-10-21T01:13:41.236Z,7.66
2022-10-21T01:16:10.647Z,7.75
2022-10-21T01:18:47.219Z,7.85
2022-10-21T01:21:33.227Z,7.88
2022-10-21T01:24:29.107Z,8.02
2022-10-21T01:27:05.762Z,8.11
2022-10-21T01:29:51.397Z,8.22
2022-10-21T01:32:36.148Z,8.31
2022-10-21T01:35:18.415Z,8.50
2022-10-21T01:37:54.979Z,8.63
2022-10-21T01:40:26.634Z,8.84
2022-10-21T01:43:13.947Z,8.95
2022-10-21T01:45:48.735Z,9.03
2022-10-21T01:48:23.913Z,9.10
2022-10-21T01:50:58.603Z,9.19
2022-10-21T01:53:30.162Z,9.29
2022-10-21T01:55:59.905Z,9.35
2022-10-21T01:58:32.337Z,9.41
2022-10-21T02:01:02.075Z,9.47
2022-10-21T02:03:52.677Z,9.53
2022-10-21T02:06:19.951Z,9.56
2022-10-21T02:08:47.197Z,9.54
2022-10-21T02:11:14.368Z,9.53
2022-10-21T02:13:51.488Z,9.46
2022-10-21T02:16:22.456Z,9.40
2022-10-21T02:18:49.198Z,9.35
2022-10-21T02:21:21.383Z,9.30
2022-10-21T02:23:57.694Z,9.24
2022-10-21T02:26:27.169Z,9.22
2022-10-21T02:28:55.902Z,9.17
2022-10-21T02:31:22.529Z,9.19
2022-10-21T02:34:13.709Z,9.24
2022-10-21T02:37:03.370Z,9.29
2022-10-21T02:39:46.788Z,9.30
2022-10-21T02:42:20.274Z,9.34
2022-10-21T02:44:47.131Z,9.38
2022-10-21T02:47:16.345Z,9.39
2022-10-21T02:49:44.895Z,9.44
2022-10-21T02:52:11.930Z,9.49
2022-10-21T02:54:38.523Z,9.55
2022-10-21T02:57:05.136Z,9.59
2022-10-21T02:59:31.750Z,9.60
2022-10-21T03:01:58.424Z,9.65
2022-10-21T03:04:25.398Z,9.70
2022-10-21T03:06:52.049Z,9.76
2022-10-21T03:09:19.246Z,9.78
2022-10-21T03:11:46.301Z,9.80
2022-10-21T03:14:13.077Z,9.84
2022-10-21T03:16:39.784Z,9.86
2022-10-21T03:19:07.502Z,9.89
2022-10-21T03:21:34.311Z,9.95
2022-10-21T03:24:01.180Z,9.99
2022-10-21T03:26:27.953Z,10.04
2022-10-21T03:29:01.117Z,10.08
2022-10-21T03:31:27.855Z,10.11
2022-10-21T03:33:55.613Z,10.15
2022-10-21T03:36:22.377Z,10.19
2022-10-21T03:38:49.152Z,10.23
2022-10-21T03:41:15.891Z,10.27
2022-10-21T03:43:42.503Z,10.31
2022-10-21T03:46:09.301Z,10.34
2022-10-21T03:48:35.921Z,10.35
2022-10-21T03:51:02.663Z,10.39
2022-10-21T03:53:42.957Z,10.39
2022-10-21T03:56:10.363Z,10.40
2022-10-21T03:58:37.014Z,10.42
2022-10-21T04:01:04.442Z,10.44
2022-10-21T04:03:31.606Z,10.46
2022-10-21T04:05:58.287Z,10.49
2022-10-21T04:08:25.020Z,10.48
2022-10-21T04:10:52.310Z,10.49
2022-10-21T04:13:19.537Z,10.48
2022-10-21T04:15:46.208Z,10.48
2022-10-21T04:18:12.840Z,10.48
2022-10-21T04:20:39.674Z,10.47
2022-10-21T04:23:06.446Z,10.50
2022-10-21T04:25:33.133Z,10.47
2022-10-21T04:28:00.563Z,10.45
2022-10-21T04:30:27.309Z,10.46
2022-10-21T04:32:54.105Z,10.46
2022-10-21T04:35:20.848Z,10.46
2022-10-21T04:37:48.534Z,10.44
2022-10-21T04:40:15.321Z,10.46
2022-10-21T04:42:42.202Z,10.45
2022-10-21T04:45:09.286Z,10.45
2022-10-21T04:47:36.083Z,10.43
2022-10-21T04:50:02.988Z,10.42
2022-10-21T04:52:29.625Z,10.42
2022-10-21T04:54:56.382Z,10.41
2022-10-21T04:57:23.093Z,10.40
2022-10-21T04:59:49.719Z,10.40
2022-10-21T05:02:17.754Z,10.37
2022-10-21T05:04:46.058Z,10.33
2022-10-21T05:07:12.663Z,10.35
2022-10-21T05:09:39.292Z,10.33
2022-10-21T05:12:06.022Z,10.30
2022-10-21T05:14:32.757Z,10.24
2022-10-21T05:16:59.780Z,10.24
2022-10-21T05:19:30.371Z,10.21
2022-10-21T05:21:57.836Z,10.23
2022-10-21T05:24:24.483Z,10.24
2022-10-21T05:26:52.132Z,10.24
2022-10-21T05:29:19.819Z,10.28
2022-10-21T05:31:46.517Z,10.33
2022-10-21T05:34:13.199Z,10.34
2022-10-21T05:36:39.882Z,10.39
2022-10-21T05:39:08.882Z,10.43
2022-10-21T05:41:35.741Z,10.48
2022-10-21T05:44:02.648Z,10.54
2022-10-21T05:46:29.328Z,10.63
2022-10-21T05:48:56.968Z,10.71
2022-10-21T05:51:26.487Z,10.76
2022-10-21T05:53:56.970Z,10.80
2022-10-21T05:56:23.716Z,10.87
2022-10-21T05:58:52.051Z,10.93
2022-10-21T06:01:19.003Z,10.97
2022-10-21T06:03:46.065Z,11.02
2022-10-21T06:06:12.795Z,11.07
2022-10-21T06:08:39.724Z,11.10
2022-10-21T06:11:15.174Z,11.14
2022-10-21T06:13:42.453Z,11.15
2022-10-21T06:16:52.091Z,11.18
2022-10-21T06:19:19.208Z,11.22
2022-10-21T06:21:47.221Z,11.25
2022-10-21T06:24:13.831Z,11.28
2022-10-21T06:26:40.534Z,11.30
2022-10-21T06:29:07.443Z,11.33
2022-10-21T06:31:34.141Z,11.35
2022-10-21T06:34:04.531Z,11.37
2022-10-21T06:36:31.644Z,11.40
2022-10-21T06:38:58.298Z,11.43
2022-10-21T06:41:25.554Z,11.46
2022-10-21T06:43:52.208Z,11.50
2022-10-21T06:46:19.373Z,11.52
2022-10-21T06:48:45.976Z,11.53
2022-10-21T06:51:17.735Z,11.56
2022-10-21T06:53:45.125Z,11.59
2022-10-21T06:56:14.972Z,11.64
2022-10-21T06:58:46.523Z,11.67
2022-10-21T07:01:27.720Z,11.72
2022-10-21T07:04:00.928Z,11.75
2022-10-21T07:06:29.191Z,11.78
2022-10-21T07:08:58.619Z,11.80
2022-10-21T07:11:27.789Z,11.83
2022-10-21T07:13:54.873Z,11.87
2022-10-21T07:16:27.235Z,11.89
2022-10-21T07:18:55.375Z,11.92
2022-10-21T07:21:31.198Z,11.92
2022-10-21T07:24:18.706Z,11.95
2022-10-21T07:26:48.212Z,11.97
2022-10-21T07:29:15.017Z,12.00
2022-10-21T07:32:41.179Z,12.06
2022-10-21T07:36:11.929Z,12.07
2022-10-21T07:38:39.137Z,12.11
2022-10-21T07:41:06.059Z,12.13
2022-10-21T07:43:33.760Z,12.18
2022-10-21T07:46:07.088Z,12.22
2022-10-21T07:48:36.763Z,12.25
2022-10-21T07:51:07.247Z,12.30
2022-10-21T07:53:34.681Z,12.33
2022-10-21T07:56:12.698Z,12.34
2022-10-21T07:58:40.206Z,12.37
2022-10-21T08:01:09.701Z,12.41
2022-10-21T08:03:37.031Z,12.44
2022-10-21T08:06:05.225Z,12.52
2022-10-21T08:08:33.430Z,12.57
2022-10-21T08:11:01.016Z,12.61
2022-10-21T08:13:27.999Z,12.67
2022-10-21T08:16:02.351Z,12.72
2022-10-21T08:18:31.093Z,12.75
2022-10-21T08:20:57.886Z,12.81
2022-10-21T08:26:15.725Z,12.87
2022-10-21T08:28:46.009Z,12.90
2022-10-21T08:31:17.550Z,12.94
2022-10-21T08:34:04.573Z,12.96
2022-10-21T08:36:31.791Z,13.00
2022-10-21T08:38:58.932Z,13.03
2022-10-21T08:41:31.552Z,13.13
2022-10-21T08:44:16.735Z,13.24
2022-10-21T08:46:53.906Z,13.30
2022-10-21T08:49:29.980Z,13.36
2022-10-21T08:52:03.530Z,13.41
2022-10-21T08:54:54.529Z,13.43
2022-10-21T08:57:21.651Z,13.42
2022-10-21T08:59:48.483Z,13.45
2022-10-21T09:02:38.848Z,13.48
2022-10-21T09:05:09.541Z,13.45
2022-10-21T09:10:52.553Z,13.57
2022-10-21T09:13:48.364Z,13.64
2022-10-21T09:16:40.029Z,13.71
2022-10-21T09:19:36.093Z,13.82
2022-10-21T09:22:34.364Z,13.92
2022-10-21T09:25:22.742Z,13.93
2022-10-21T09:27:57.067Z,13.94
2022-10-21T09:30:26.050Z,13.91
2022-10-21T09:33:00.139Z,13.83
2022-10-21T09:35:36.784Z,13.79
2022-10-21T09:38:33.795Z,13.74
2022-10-21T09:41:03.523Z,13.70
2022-10-21T09:43:31.200Z,13.67
2022-10-21T09:46:01.502Z,13.61
2022-10-21T09:49:25.865Z,13.54
2022-10-21T09:51:48.053Z,13.49
2022-10-21T09:54:22.043Z,13.49
2022-10-21T09:57:11.818Z,13.43
2022-10-21T09:59:51.288Z,13.44
2022-10-21T10:02:36.688Z,13.40
2022-10-21T10:05:47.110Z,13.37
2022-10-21T10:08:22.372Z,13.33
2022-10-21T10:10:50.073Z,13.30
2022-10-21T10:13:19.635Z,13.29
2022-10-21T10:15:46.796Z,13.29
2022-10-21T10:18:25.754Z,13.34
2022-10-21T10:21:14.052Z,13.38
2022-10-21T10:24:00.610Z,13.40
2022-10-21T10:26:43.240Z,13.43
2022-10-21T10:29:16.112Z,13.48
2022-10-21T10:31:56.545Z,13.58
2022-10-21T10:34:32.274Z,13.76
2022-10-21T10:37:15.472Z,13.94
2022-10-21T10:39:45.955Z,14.20
2022-10-21T10:42:18.549Z,14.38
2022-10-21T10:44:45.463Z,14.43
2022-10-21T10:47:26.203Z,14.55
2022-10-21T10:49:53.180Z,14.59
2022-10-21T10:52:24.551Z,14.62
2022-10-21T10:55:16.548Z,14.74
2022-10-21T10:57:58.881Z,14.79
2022-10-21T11:00:27.479Z,14.82
2022-10-21T11:03:10.846Z,14.75
2022-10-21T11:05:44.397Z,14.70
2022-10-21T11:08:31.953Z,14.60
2022-10-21T11:11:04.896Z,14.57
2022-10-21T11:13:35.502Z,14.48
2022-10-21T11:16:16.519Z,14.44
2022-10-21T11:18:55.423Z,14.48
2022-10-21T11:21:27.868Z,14.48
2022-10-21T11:24:29.600Z,14.49
2022-10-21T11:27:04.409Z,14.59
2022-10-21T11:30:03.454Z,14.58
2022-10-21T11:32:35.617Z,14.60
2022-10-21T11:35:27.162Z,14.61
2022-10-21T11:38:12.943Z,14.60
2022-10-21T11:41:13.614Z,14.56
2022-10-21T11:43:56.716Z,14.56
2022-10-21T11:46:32.369Z,14.49
2022-10-21T11:49:07.841Z,14.42
2022-10-21T11:51:34.508Z,14.43
2022-10-21T11:54:08.355Z,14.39
2022-10-21T11:57:04.850Z,14.39
2022-10-21T12:00:05.464Z,14.33
2022-10-21T12:02:46.337Z,14.27
2022-10-21T12:05:32.376Z,14.25
2022-10-21T12:08:11.731Z,14.21
2022-10-21T12:10:47.471Z,14.10
2022-10-21T12:13:18.618Z,14.08
2022-10-21T12:15:56.030Z,14.14
2022-10-21T12:18:32.266Z,14.15
2022-10-21T12:21:10.935Z,14.16
2022-10-21T12:23:55.807Z,14.08
2022-10-21T12:26:41.684Z,14.02
2022-10-21T12:30:22.160Z,13.96
2022-10-21T12:33:29.419Z,13.92
2022-10-21T12:36:27.615Z,13.91
2022-10-21T12:39:00.894Z,13.98
2022-10-21T12:41:35.265Z,14.12
2022-10-21T12:44:01.917Z,14.26
2022-10-21T12:46:30.217Z,14.34
2022-10-21T12:49:00.292Z,14.47
2022-10-21T12:51:29.980Z,14.52
2022-10-21T12:54:07.535Z,14.53
2022-10-21T12:56:42.187Z,14.54
2022-10-21T12:59:29.678Z,14.48
2022-10-21T13:02:05.431Z,14.44
2022-10-21T13:04:32.063Z,14.35
2022-10-21T13:07:01.837Z,14.40
2022-10-21T13:09:40.306Z,14.49
2022-10-21T13:12:07.899Z,14.56
2022-10-21T13:14:55.813Z,14.63
2022-10-21T13:17:23.527Z,14.65
2022-10-21T13:19:51.456Z,14.76
2022-10-21T13:22:21.106Z,14.74
2022-10-21T13:24:49.244Z,14.71
2022-10-21T13:30:07.805Z,14.73
2022-10-21T13:32:38.698Z,14.83
2022-10-21T13:35:20.756Z,14.73
2022-10-21T13:37:55.929Z,14.80
2022-10-21T13:40:27.840Z,14.85
2022-10-21T13:43:00.405Z,14.85
2022-10-21T13:45:31.580Z,14.99
2022-10-21T13:48:17.850Z,15.01
2022-10-21T13:50:49.934Z,14.96
2022-10-21T13:53:37.098Z,14.81
2022-10-21T13:56:07.618Z,14.76
2022-10-21T13:58:39.590Z,14.71
2022-10-21T14:01:18.761Z,14.67
2022-10-21T14:03:46.093Z,14.58
2022-10-21T14:06:30.914Z,14.47
2022-10-21T14:09:04.299Z,14.46
2022-10-21T14:11:37.496Z,14.44
2022-10-21T14:14:08.741Z,14.40
2022-10-21T14:16:40.181Z,14.37
2022-10-21T14:19:09.940Z,14.29
2022-10-21T14:21:39.278Z,14.29
2022-10-21T14:24:06.565Z,14.25
2022-10-21T14:26:33.645Z,14.18
2022-10-21T14:29:01.421Z,14.12
2022-10-21T14:31:28.202Z,14.08
2022-10-21T14:33:55.148Z,14.01
2022-10-21T14:36:25.151Z,14.01
2022-10-21T14:39:03.289Z,13.89
2022-10-21T14:41:39.786Z,13.90
2022-10-21T14:44:23.719Z,13.85
2022-10-21T14:47:03.933Z,13.84
2022-10-21T14:49:43.059Z,13.74
2022-10-21T14:52:21.990Z,13.77
2022-10-21T14:54:54.987Z,13.78
2022-10-21T14:57:40.287Z,13.80
2022-10-21T15:00:20.008Z,13.78
2022-10-21T15:02:47.451Z,13.74
2022-10-21T15:05:47.840Z,13.75
2022-10-21T15:08:21.767Z,13.71
2022-10-21T15:10:57.448Z,13.70
2022-10-21T15:13:26.088Z,13.65
2022-10-21T15:15:55.959Z,13.67
2022-10-21T15:18:25.427Z,13.65
2022-10-21T15:21:07.067Z,13.65
2022-10-21T15:23:38.395Z,13.62
2022-10-21T15:26:19.042Z,13.68
2022-10-21T15:28:51.658Z,13.70
2022-10-21T15:31:22.265Z,13.71
2022-10-21T15:33:50.501Z,13.73
2022-10-21T15:36:22.348Z,13.75
2022-10-21T15:38:55.422Z,13.80
2022-10-21T15:41:25.269Z,13.80
2022-10-21T15:44:04.754Z,13.79
2022-10-21T15:46:34.174Z,13.80
2022-10-21T15:49:06.912Z,13.82
2022-10-21T15:51:33.751Z,13.82
2022-10-21T15:54:03.578Z,13.80
2022-10-21T15:56:30.267Z,13.76
2022-10-21T15:58:56.995Z,13.75
2022-10-21T16:01:23.837Z,13.73
2022-10-21T16:03:50.717Z,13.68
2022-10-21T16:06:20.275Z,13.62
2022-10-21T16:08:49.393Z,13.55
2022-10-21T16:11:25.619Z,13.54
2022-10-21T16:14:02.543Z,13.54
2022-10-21T16:16:29.486Z,13.52
2022-10-21T16:18:56.278Z,13.55
2022-10-21T16:21:23.530Z,13.51
2022-10-21T16:23:50.608Z,13.55
2022-10-21T16:26:25.754Z,13.54
2022-10-21T16:28:54.802Z,13.54
2022-10-21T16:31:22.051Z,13.46
2022-10-21T16:33:48.758Z,13.47
2022-10-21T16:36:20.551Z,13.43
2022-10-21T16:38:47.512Z,13.42
2022-10-21T16:41:17.567Z,13.43
2022-10-21T16:43:46.013Z,13.41
2022-10-21T16:46:28.108Z,13.41
2022-10-21T16:48:56.415Z,13.40
2022-10-21T16:51:28.332Z,13.43
2022-10-21T16:53:55.207Z,13.39
2022-10-21T16:56:22.404Z,13.38
2022-10-21T16:58:49.482Z,13.39
2022-10-21T17:01:19.823Z,13.36
2022-10-21T17:03:46.892Z,13.36
2022-10-21T17:06:15.988Z,13.33
2022-10-21T17:08:43.200Z,13.32
2022-10-21T17:11:14.241Z,13.36
2022-10-21T17:13:44.353Z,13.37
2022-10-21T17:16:12.390Z,13.36
2022-10-21T17:18:39.374Z,13.35
2022-10-21T17:21:06.638Z,13.29
2022-10-21T17:23:33.381Z,13.28
2022-10-21T17:26:00.075Z,13.30
2022-10-21T17:28:26.853Z,13.29
2022-10-21T17:30:53.515Z,13.28
2022-10-21T17:33:20.254Z,13.29
2022-10-21T17:35:47.007Z,13.30
2022-10-21T17:38:15.071Z,13.30
2022-10-21T17:40:41.760Z,13.32
2022-10-21T17:43:08.615Z,13.30
2022-10-21T17:45:35.975Z,13.31
2022-10-21T17:48:03.330Z,13.33
2022-10-21T17:50:31.893Z,13.34
2022-10-21T17:52:59.688Z,13.34
2022-10-21T17:55:27.104Z,13.35
2022-10-21T17:57:53.852Z,13.37
2022-10-21T18:00:20.748Z,13.37
2022-10-21T18:02:47.537Z,13.39
2022-10-21T18:05:15.431Z,13.38
2022-10-21T18:07:42.359Z,13.38
2022-10-21T18:10:09.801Z,13.39
2022-10-21T18:12:37.101Z,13.41
2022-10-21T18:15:04.911Z,13.41
2022-10-21T18:17:33.301Z,13.39
2022-10-21T18:20:00.231Z,13.42
2022-10-21T18:22:27.101Z,13.42
2022-10-21T18:24:54.301Z,13.43
2022-10-21T18:27:21.777Z,13.43
2022-10-21T18:29:48.452Z,13.44
2022-10-21T18:32:15.098Z,13.43
2022-10-21T18:34:42.511Z,13.44
2022-10-21T18:37:09.619Z,13.45
2022-10-21T18:39:37.000Z,13.43
2022-10-21T18:42:03.802Z,13.43
2022-10-21T18:44:31.265Z,13.43
2022-10-21T18:46:58.567Z,13.42
2022-10-21T18:49:25.279Z,13.43
2022-10-21T18:51:51.914Z,13.41
2022-10-21T18:54:18.914Z,13.38
2022-10-21T18:56:45.774Z,13.40
2022-10-21T18:59:12.555Z,13.41
2022-10-21T19:01:40.571Z,13.38
2022-10-21T19:04:07.818Z,13.40
2022-10-21T19:06:40.972Z,13.41
2022-10-21T19:09:18.508Z,13.43
2022-10-21T19:11:46.132Z,13.41
2022-10-21T19:14:14.927Z,13.42
2022-10-21T19:16:43.099Z,13.41
2022-10-21T19:19:10.512Z,13.42
2022-10-21T19:21:37.861Z,13.42
2022-10-21T19:24:05.028Z,13.42
2022-10-21T19:26:34.736Z,13.43
2022-10-21T19:29:06.400Z,13.39
2022-10-21T19:31:36.151Z,13.39
2022-10-21T19:34:04.412Z,13.40
2022-10-21T19:36:31.182Z,13.40
2022-10-21T19:38:59.841Z,13.40
2022-10-21T19:41:26.544Z,13.41
2022-10-21T19:43:58.473Z,13.41
2022-10-21T19:46:27.151Z,13.40
2022-10-21T19:48:55.632Z,13.39
2022-10-21T19:51:24.492Z,13.41
2022-10-21T19:53:52.406Z,13.42
2022-10-21T19:56:23.769Z,13.44
2022-10-21T19:58:54.315Z,13.42
2022-10-21T20:01:23.940Z,13.42
2022-10-21T20:03:52.858Z,13.43
2022-10-21T20:06:23.145Z,13.44
2022-10-21T20:08:50.172Z,13.44
2022-10-21T20:11:19.779Z,13.42
2022-10-21T20:13:47.529Z,13.44
2022-10-21T20:16:21.209Z,13.41
2022-10-21T20:18:50.867Z,13.43
2022-10-21T20:21:27.838Z,13.45
2022-10-21T20:23:56.785Z,13.48
2022-10-21T20:26:24.451Z,13.50
2022-10-21T20:28:52.225Z,13.50
2022-10-21T20:31:19.198Z,13.48
2022-10-21T20:33:48.635Z,13.52
2022-10-21T20:36:21.537Z,13.51
2022-10-21T20:38:49.258Z,13.52
2022-10-21T20:41:23.349Z,13.47
2022-10-21T20:43:51.751Z,13.48
2022-10-21T20:46:22.311Z,13.47
2022-10-21T20:48:51.949Z,13.45
2022-10-21T20:51:21.324Z,13.47
2022-10-21T20:53:51.262Z,13.46
2022-10-21T20:56:18.537Z,13.47
2022-10-21T20:58:45.488Z,13.46
2022-10-21T21:01:13.710Z,13.45
2022-10-21T21:03:56.535Z,13.44
2022-10-21T21:06:23.784Z,13.48
2022-10-21T21:09:08.565Z,13.42
2022-10-21T21:11:40.793Z,13.46
2022-10-21T21:14:09.957Z,13.44
2022-10-21T21:16:36.920Z,13.41
2022-10-21T21:19:06.866Z,13.42
2022-10-21T21:21:35.798Z,13.40
2022-10-21T21:24:03.197Z,13.39
2022-10-21T21:26:36.584Z,13.35
2022-10-21T21:29:06.266Z,13.33
2022-10-21T21:31:34.173Z,13.32
2022-10-21T21:34:01.126Z,13.31
2022-10-21T21:36:27.795Z,13.27
2022-10-21T21:38:54.460Z,13.24
2022-10-21T21:41:23.941Z,13.18
2022-10-21T21:43:52.185Z,13.20
2022-10-21T21:46:24.664Z,13.14
2022-10-21T21:48:59.579Z,13.09
2022-10-21T21:51:29.285Z,13.09
2022-10-21T21:53:57.573Z,13.08
2022-10-21T21:56:25.908Z,13.06
2022-10-21T21:58:55.030Z,13.00
2022-10-21T22:01:24.380Z,13.00
2022-10-21T22:03:52.007Z,12.93
2022-10-21T22:06:24.062Z,12.87
2022-10-21T22:08:51.398Z,12.84
2022-10-21T22:11:21.340Z,12.76
2022-10-21T22:13:49.441Z,12.69
2022-10-21T22:16:16.398Z,12.69
2022-10-21T22:18:45.712Z,12.62
2022-10-21T22:21:15.001Z,12.59
2022-10-21T22:23:42.473Z,12.53
2022-10-21T22:26:10.277Z,12.48
2022-10-21T22:28:37.270Z,12.44
2022-10-21T22:31:07.265Z,12.40
2022-10-21T22:33:36.269Z,12.38
2022-10-21T22:36:03.764Z,12.37
2022-10-21T22:38:30.901Z,12.36
2022-10-21T22:41:00.575Z,12.36
2022-10-21T22:43:28.125Z,12.35
2022-10-21T22:46:05.148Z,12.32
2022-10-21T22:48:43.211Z,12.29
2022-10-21T22:51:09.866Z,12.26
2022-10-21T22:53:37.880Z,12.25
2022-10-21T22:56:04.785Z,12.26
2022-10-21T22:58:31.558Z,12.24
2022-10-21T23:00:58.524Z,12.28
2022-10-21T23:03:25.539Z,12.21
2022-10-21T23:05:53.111Z,12.22
2022-10-21T23:08:19.979Z,12.18
2022-10-21T23:10:49.477Z,12.17
2022-10-21T23:13:16.579Z,12.14
2022-10-21T23:15:43.698Z,12.15
2022-10-21T23:18:10.886Z,12.15
2022-10-21T23:20:37.653Z,12.18
2022-10-21T23:23:04.519Z,12.19
2022-10-21T23:25:31.125Z,12.18
2022-10-21T23:27:57.972Z,12.22
2022-10-21T23:30:24.823Z,12.21
2022-10-21T23:32:51.490Z,12.22
2022-10-21T23:35:19.680Z,12.16
2022-10-21T23:37:47.663Z,12.11
2022-10-21T23:40:14.346Z,12.09
2022-10-21T23:42:42.845Z,12.09
2022-10-21T23:45:11.245Z,12.11
2022-10-21T23:47:39.417Z,12.13
2022-10-21T23:50:07.797Z,12.14
2022-10-21T23:52:34.713Z,12.15
2022-10-21T23:55:01.801Z,12.18
2022-10-21T23:57:28.595Z,12.21
2022-10-21T23:59:55.283Z,12.22
